createdAt,value
2023-03-22T00:02:13.906Z,9.57
2023-03-22T00:04:43.106Z,8.07
2023-03-22T00:07:09.610Z,11.00
2023-03-22T00:09:36.584Z,8.97
2023-03-22T00:12:03.297Z,8.60
2023-03-22T00:14:29.821Z,11.30
2023-03-22T00:16:56.491Z,11.37
2023-03-22T00:19:22.955Z,11.70
2023-03-22T00:21:51.314Z,9.43
2023-03-22T00:24:17.973Z,8.73
2023-03-22T00:26:46.986Z,10.83
2023-03-22T00:29:14.047Z,12.27
2023-03-22T00:31:41.425Z,11.13
2023-03-22T00:34:07.928Z,10.67
2023-03-22T00:36:34.357Z,10.83
2023-03-22T00:39:01.120Z,10.20
2023-03-22T00:41:27.545Z,10.97
2023-03-22T00:43:53.962Z,10.93
2023-03-22T00:46:21.188Z,10.53
2023-03-22T00:48:48.055Z,9.63
2023-03-22T00:51:16.002Z,15.37
2023-03-22T00:53:43.741Z,12.27
2023-03-22T00:56:16.169Z,11.30
2023-03-22T00:58:47.809Z,11.67
2023-03-22T01:01:15.302Z,10.77
2023-03-22T01:03:43.584Z,11.73
2023-03-22T01:06:13.798Z,14.17
2023-03-22T01:08:40.459Z,12.30
2023-03-22T01:11:07.641Z,11.37
2023-03-22T01:13:37.465Z,12.97
2023-03-22T01:16:05.935Z,13.73
2023-03-22T01:18:33.650Z,9.67
2023-03-22T01:21:00.262Z,10.77
2023-03-22T01:23:26.844Z,10.57
2023-03-22T01:25:53.365Z,11.90
2023-03-22T01:28:19.934Z,12.03
2023-03-22T01:30:46.474Z,10.87
2023-03-22T01:33:13.040Z,12.10
2023-03-22T01:35:39.519Z,12.83
2023-03-22T01:38:07.146Z,14.07
2023-03-22T01:40:38.353Z,10.97
2023-03-22T01:43:13.473Z,11.87
2023-03-22T01:45:49.038Z,15.53
2023-03-22T01:48:26.200Z,13.30
2023-03-22T01:51:02.849Z,12.67
2023-03-22T01:53:38.974Z,12.87
2023-03-22T01:56:07.585Z,9.87
2023-03-22T01:58:37.067Z,14.23
2023-03-22T02:01:07.604Z,13.20
2023-03-22T02:03:56.881Z,12.80
2023-03-22T02:06:25.650Z,14.67
2023-03-22T02:08:59.106Z,12.57
2023-03-22T02:11:41.526Z,10.93
2023-03-22T02:14:40.272Z,12.17
2023-03-22T02:17:43.660Z,14.73
2023-03-22T02:20:45.272Z,13.03
2023-03-22T02:23:42.797Z,12.93
2023-03-22T02:26:31.105Z,14.10
2023-03-22T02:29:16.309Z,17.20
2023-03-22T02:32:12.627Z,12.23
2023-03-22T02:35:05.171Z,13.30
2023-03-22T02:37:56.996Z,12.13
2023-03-22T02:40:43.812Z,15.53
2023-03-22T02:43:34.496Z,11.70
2023-03-22T02:46:23.165Z,11.87
2023-03-22T02:49:08.207Z,14.87
2023-03-22T02:51:43.558Z,11.77
2023-03-22T02:54:18.489Z,14.77
2023-03-22T02:56:49.621Z,13.53
2023-03-22T02:59:19.298Z,14.17
2023-03-22T03:01:50.609Z,14.87
2023-03-22T03:04:21.160Z,16.80
2023-03-22T03:06:51.693Z,13.27
2023-03-22T03:09:20.454Z,13.87
2023-03-22T03:11:49.780Z,11.73
2023-03-22T03:14:21.456Z,14.20
2023-03-22T03:17:02.085Z,14.40
2023-03-22T03:19:39.340Z,13.47
2023-03-22T03:22:25.897Z,12.33
2023-03-22T03:25:51.541Z,16.33
2023-03-22T03:28:38.094Z,14.10
2023-03-22T03:31:10.590Z,13.70
2023-03-22T03:33:48.459Z,14.93
2023-03-22T03:36:18.067Z,12.90
2023-03-22T03:38:49.099Z,12.43
2023-03-22T03:41:24.467Z,12.47
2023-03-22T03:43:52.864Z,16.13
2023-03-22T03:46:20.893Z,14.97
2023-03-22T03:48:50.373Z,14.93
2023-03-22T03:51:16.925Z,15.50
2023-03-22T03:53:43.748Z,15.63
2023-03-22T03:56:11.285Z,13.00
2023-03-22T03:58:42.907Z,15.33
2023-03-22T04:01:09.609Z,19.07
2023-03-22T04:03:55.295Z,15.83
2023-03-22T04:06:40.271Z,14.10
2023-03-22T04:09:11.859Z,17.67
2023-03-22T04:11:42.390Z,16.83
2023-03-22T04:14:08.969Z,16.97
2023-03-22T04:16:35.497Z,16.47
2023-03-22T04:19:02.579Z,15.87
2023-03-22T04:21:29.217Z,19.73
2023-03-22T04:24:01.055Z,19.00
2023-03-22T04:26:30.730Z,16.00
2023-03-22T04:29:36.494Z,15.93
2023-03-22T04:32:25.076Z,16.00
2023-03-22T04:34:53.263Z,14.50
2023-03-22T04:37:22.560Z,15.50
2023-03-22T04:39:56.100Z,17.03
2023-03-22T04:42:30.836Z,16.77
2023-03-22T04:45:07.974Z,18.43
2023-03-22T04:47:35.475Z,13.83
2023-03-22T04:50:07.296Z,17.53
2023-03-22T04:52:39.660Z,18.67
2023-03-22T04:55:07.140Z,17.27
2023-03-22T04:57:35.143Z,13.90
2023-03-22T05:00:08.456Z,15.10
2023-03-22T05:02:39.963Z,20.10
2023-03-22T05:05:11.017Z,19.67
2023-03-22T05:07:40.106Z,44.13
2023-03-22T05:10:08.822Z,17.27
2023-03-22T05:12:35.344Z,16.43
2023-03-22T05:15:20.536Z,27.07
2023-03-22T05:17:49.198Z,18.83
2023-03-22T05:20:15.919Z,21.10
2023-03-22T05:22:50.516Z,18.10
2023-03-22T05:25:18.514Z,16.57
2023-03-22T05:27:46.085Z,17.23
2023-03-22T05:30:36.056Z,15.97
2023-03-22T05:33:22.587Z,15.83
2023-03-22T05:35:52.762Z,17.37
2023-03-22T05:38:19.599Z,14.03
2023-03-22T05:40:50.641Z,17.30
2023-03-22T05:43:17.193Z,15.77
2023-03-22T05:45:48.091Z,16.27
2023-03-22T05:48:36.365Z,16.67
2023-03-22T05:51:07.074Z,17.40
2023-03-22T05:53:34.577Z,17.83
2023-03-22T05:56:09.947Z,15.90
2023-03-22T05:58:38.212Z,16.10
2023-03-22T06:01:11.498Z,17.23
2023-03-22T06:03:57.903Z,17.13
2023-03-22T06:06:30.525Z,15.17
2023-03-22T06:09:17.281Z,17.37
2023-03-22T06:11:47.082Z,20.43
2023-03-22T06:14:16.027Z,15.93
2023-03-22T06:17:01.876Z,17.23
2023-03-22T06:19:28.642Z,18.70
2023-03-22T06:21:56.014Z,17.17
2023-03-22T06:24:25.582Z,17.87
2023-03-22T06:26:52.031Z,19.80
2023-03-22T06:29:18.570Z,19.87
2023-03-22T06:31:45.509Z,20.20
2023-03-22T06:34:12.801Z,16.30
2023-03-22T06:36:42.295Z,22.93
2023-03-22T06:39:15.323Z,25.47
2023-03-22T06:41:44.178Z,45.73
2023-03-22T06:44:11.104Z,38.00
2023-03-22T06:47:00.586Z,33.83
2023-03-22T06:49:40.604Z,33.40
2023-03-22T06:52:08.958Z,27.17
2023-03-22T06:54:35.880Z,40.63
2023-03-22T06:57:03.439Z,18.50
2023-03-22T06:59:30.190Z,17.93
2023-03-22T07:01:56.685Z,18.40
2023-03-22T07:04:24.178Z,19.90
2023-03-22T07:06:51.668Z,22.10
2023-03-22T07:09:18.459Z,18.10
2023-03-22T07:11:47.898Z,19.60
2023-03-22T07:14:16.355Z,20.53
2023-03-22T07:17:09.641Z,18.60
2023-03-22T07:19:36.148Z,20.13
2023-03-22T07:22:07.826Z,22.27
2023-03-22T07:24:37.160Z,18.47
2023-03-22T07:27:07.742Z,22.90
2023-03-22T07:29:34.370Z,21.13
2023-03-22T07:32:02.989Z,17.60
2023-03-22T07:34:49.656Z,15.97
2023-03-22T07:37:18.440Z,18.10
2023-03-22T07:39:45.468Z,17.50
2023-03-22T07:42:12.085Z,18.53
2023-03-22T07:44:41.977Z,16.60
2023-03-22T07:47:27.222Z,15.80
2023-03-22T07:50:26.523Z,15.90
2023-03-22T07:52:55.892Z,15.97
2023-03-22T07:55:22.379Z,18.67
2023-03-22T07:57:48.850Z,16.53
2023-03-22T08:00:16.495Z,18.63
2023-03-22T08:02:48.195Z,14.87
2023-03-22T08:05:36.152Z,15.93
2023-03-22T08:08:05.461Z,15.70
2023-03-22T08:10:32.860Z,16.03
2023-03-22T08:13:00.693Z,15.67
2023-03-22T08:15:27.899Z,15.20
2023-03-22T08:17:57.897Z,15.77
2023-03-22T08:20:31.765Z,14.40
2023-03-22T08:23:02.748Z,13.73
2023-03-22T08:25:53.638Z,15.10
2023-03-22T08:28:21.066Z,15.50
2023-03-22T08:30:49.507Z,14.67
2023-03-22T08:33:21.119Z,13.27
2023-03-22T08:35:47.876Z,13.97
2023-03-22T08:38:14.520Z,14.93
2023-03-22T08:40:47.499Z,15.33
2023-03-22T08:43:17.283Z,13.93
2023-03-22T08:45:44.883Z,11.97
2023-03-22T08:48:16.507Z,13.27
2023-03-22T08:50:58.548Z,11.83
2023-03-22T08:53:35.482Z,11.07
2023-03-22T08:56:22.627Z,10.17
2023-03-22T08:59:00.958Z,13.37
2023-03-22T09:01:38.391Z,10.97
2023-03-22T09:04:10.153Z,11.17
2023-03-22T09:06:37.429Z,10.60
2023-03-22T09:09:04.187Z,10.63
2023-03-22T09:11:31.929Z,11.57
2023-03-22T09:13:58.348Z,10.63
2023-03-22T09:16:25.357Z,9.43
2023-03-22T09:18:52.122Z,7.73
2023-03-22T09:21:21.817Z,10.77
2023-03-22T09:24:07.474Z,10.70
2023-03-22T09:26:46.770Z,10.10
2023-03-22T09:29:16.351Z,10.10
2023-03-22T09:31:45.060Z,7.40
2023-03-22T09:34:25.691Z,10.67
2023-03-22T09:36:52.722Z,9.33
2023-03-22T09:39:22.572Z,11.40
2023-03-22T09:41:57.451Z,11.17
2023-03-22T09:44:27.296Z,9.03
2023-03-22T09:46:56.745Z,9.47
2023-03-22T09:49:28.863Z,7.20
2023-03-22T09:51:55.890Z,6.33
2023-03-22T09:54:37.368Z,6.80
2023-03-22T09:57:24.980Z,8.70
2023-03-22T10:00:02.062Z,6.20
2023-03-22T10:02:52.378Z,8.87
2023-03-22T10:05:24.130Z,6.93
2023-03-22T10:08:15.526Z,6.93
2023-03-22T10:10:43.072Z,8.27
2023-03-22T10:13:37.817Z,6.67
2023-03-22T10:16:16.390Z,5.83
2023-03-22T10:18:48.559Z,5.37
2023-03-22T10:21:18.247Z,6.80
2023-03-22T10:23:46.840Z,5.63
2023-03-22T10:26:38.507Z,5.20
2023-03-22T10:29:13.294Z,7.50
2023-03-22T10:31:43.647Z,6.47
2023-03-22T10:34:22.438Z,6.60
2023-03-22T10:36:52.125Z,7.10
2023-03-22T10:39:31.452Z,5.87
2023-03-22T10:42:02.234Z,6.70
2023-03-22T10:44:34.634Z,6.37
2023-03-22T10:47:08.046Z,6.23
2023-03-22T10:49:49.819Z,6.07
2023-03-22T10:52:36.860Z,7.00
2023-03-22T10:55:04.778Z,6.00
2023-03-22T10:57:31.260Z,5.77
2023-03-22T10:59:58.007Z,6.37
2023-03-22T11:02:32.475Z,5.33
2023-03-22T11:05:07.022Z,4.83
2023-03-22T11:07:40.241Z,5.50
2023-03-22T11:10:09.053Z,4.70
2023-03-22T11:12:40.011Z,4.23
2023-03-22T11:15:18.809Z,4.57
2023-03-22T11:17:45.720Z,5.67
2023-03-22T11:20:18.043Z,4.33
2023-03-22T11:22:48.217Z,6.27
2023-03-22T11:25:20.501Z,6.37
2023-03-22T11:28:16.519Z,8.73
2023-03-22T11:30:57.634Z,6.37
2023-03-22T11:33:28.272Z,7.77
2023-03-22T11:35:58.112Z,6.13
2023-03-22T11:38:39.362Z,6.17
2023-03-22T11:41:23.269Z,5.93
2023-03-22T11:44:04.526Z,8.33
2023-03-22T11:46:32.620Z,6.93
2023-03-22T11:49:03.145Z,5.43
2023-03-22T11:51:33.493Z,5.67
2023-03-22T11:54:08.560Z,6.43
2023-03-22T11:56:40.967Z,6.97
2023-03-22T11:59:16.783Z,6.97
2023-03-22T12:01:54.750Z,4.27
2023-03-22T12:04:26.693Z,7.27
2023-03-22T12:06:58.219Z,6.20
2023-03-22T12:09:35.869Z,5.70
2023-03-22T12:12:06.524Z,5.47
2023-03-22T12:14:51.767Z,6.13
2023-03-22T12:17:37.595Z,7.00
2023-03-22T12:20:42.374Z,7.20
2023-03-22T12:23:18.674Z,8.10
2023-03-22T12:26:00.959Z,6.77
2023-03-22T12:28:33.587Z,5.93
2023-03-22T12:31:03.734Z,6.63
2023-03-22T12:33:43.546Z,8.60
2023-03-22T12:36:22.025Z,5.10
2023-03-22T12:38:53.973Z,6.47
2023-03-22T12:41:38.593Z,5.37
2023-03-22T12:44:18.611Z,10.17
2023-03-22T12:47:24.887Z,6.47
2023-03-22T12:49:58.842Z,6.07
2023-03-22T12:52:45.458Z,6.17
2023-03-22T12:55:28.116Z,7.13
2023-03-22T12:57:55.599Z,6.93
2023-03-22T13:00:28.467Z,7.17
2023-03-22T13:03:02.038Z,8.20
2023-03-22T13:05:33.313Z,6.30
2023-03-22T13:08:03.671Z,7.93
2023-03-22T13:10:33.965Z,6.27
2023-03-22T13:13:21.551Z,6.77
2023-03-22T13:16:10.907Z,7.73
2023-03-22T13:18:40.627Z,7.80
2023-03-22T13:21:29.812Z,5.80
2023-03-22T13:24:05.207Z,4.97
2023-03-22T13:26:45.735Z,4.07
2023-03-22T13:29:24.725Z,4.73
2023-03-22T13:31:51.141Z,5.07
2023-03-22T13:34:20.978Z,5.10
2023-03-22T13:36:53.837Z,5.30
2023-03-22T13:39:23.206Z,6.23
2023-03-22T13:42:02.010Z,5.80
2023-03-22T13:44:38.877Z,7.23
2023-03-22T13:47:28.255Z,5.63
2023-03-22T13:50:01.043Z,5.80
2023-03-22T13:52:34.910Z,5.37
2023-03-22T13:55:01.863Z,6.37
2023-03-22T13:57:47.633Z,4.23
2023-03-22T14:00:35.033Z,5.50
2023-03-22T14:03:07.309Z,6.60
2023-03-22T14:05:37.371Z,7.90
2023-03-22T14:08:05.162Z,5.77
2023-03-22T14:10:48.764Z,3.67
2023-03-22T14:13:31.766Z,7.20
2023-03-22T14:16:06.532Z,7.50
2023-03-22T14:18:39.826Z,5.67
2023-03-22T14:21:12.243Z,5.83
